Time;durP1;ratioP1;P1;durP2;ratioP2;P2;SDS_P1;SDS_P2;PMS_P1;PMS_P2;Temp;Humidity;BMP_temperature;BMP_pressure;BME280_temperature;BME280_humidity;BME280_pressure;Samples;Min_cycle;Max_cycle;Signal;HPM_P1;HPM_P2
2023/04/10 00:00:42;;;;;;;;;;;9.90;99.90;;;;;;5074978;28;19944;-73
2023/04/10 00:03:07;;;;;;;;;;;9.80;99.90;;;;;;5075288;28;19909;-72
2023/04/10 00:05:33;;;;;;;;;;;9.90;99.90;;;;;;5073036;28;19941;-72
2023/04/10 00:07:59;;;;;;;;;;;9.90;99.90;;;;;;5075022;28;19916;-73
2023/04/10 00:10:27;;;;;;;;;;;10.00;99.90;;;;;;5074962;28;19915;-73
2023/04/10 00:12:54;;;;;;;;;;;10.00;99.90;;;;;;5074977;28;19913;-74
2023/04/10 00:15:20;;;;;;;;;;;9.90;99.90;;;;;;5074283;28;19969;-74
2023/04/10 00:17:46;;;;;;;;;;;9.90;99.90;;;;;;5075200;28;19908;-72
2023/04/10 00:20:12;;;;;;;;;;;10.00;99.90;;;;;;5074813;28;19912;-72
2023/04/10 00:22:38;;;;;;;;;;;10.00;99.90;;;;;;5074032;28;19909;-72
2023/04/10 00:25:05;;;;;;;;;;;10.00;99.90;;;;;;5073012;28;19965;-72
2023/04/10 00:27:31;;;;;;;;;;;10.00;99.90;;;;;;5073292;28;19930;-72
2023/04/10 00:29:56;;;;;;;;;;;10.10;99.90;;;;;;5073069;28;20003;-72
2023/04/10 00:32:22;;;;;;;;;;;10.00;99.90;;;;;;5074452;28;19920;-72
2023/04/10 00:34:47;;;;;;;;;;;10.00;99.90;;;;;;5074296;28;20010;-72
2023/04/10 00:37:13;;;;;;;;;;;10.00;99.90;;;;;;5072901;28;19908;-72
2023/04/10 00:39:39;;;;;;;;;;;9.90;99.90;;;;;;5074084;28;19909;-74
2023/04/10 00:42:08;;;;;;;;;;;9.90;99.90;;;;;;5072464;28;19913;-72
2023/04/10 00:44:36;;;;;;;;;;;9.80;99.90;;;;;;5073285;28;20011;-72
2023/04/10 00:47:03;;;;;;;;;;;9.70;99.90;;;;;;5074251;28;19909;-72
2023/04/10 00:49:29;;;;;;;;;;;9.70;99.90;;;;;;5073878;28;20007;-73
2023/04/10 00:51:55;;;;;;;;;;;9.70;99.90;;;;;;5074350;28;19958;-72
2023/04/10 00:54:21;;;;;;;;;;;9.70;99.90;;;;;;5074395;28;19909;-72
2023/04/10 00:56:47;;;;;;;;;;;9.70;99.90;;;;;;5073505;28;19928;-73
2023/04/10 00:59:13;;;;;;;;;;;9.60;99.90;;;;;;5074280;28;20139;-72
2023/04/10 01:01:39;;;;;;;;;;;9.70;99.90;;;;;;5074224;28;19931;-73
2023/04/10 01:04:05;;;;;;;;;;;9.70;99.90;;;;;;5074086;28;19983;-73
2023/04/10 01:06:51;;;;;;;;;;;9.60;99.90;;;;;;5073816;28;19916;-73
2023/04/10 01:09:20;;;;;;;;;;;9.60;99.90;;;;;;5074323;28;19912;-72
2023/04/10 01:11:46;;;;;;;;;;;9.50;99.90;;;;;;5074118;28;20370;-73
2023/04/10 01:14:21;;;;;;;;;;;9.50;99.90;;;;;;5073979;28;19919;-72
2023/04/10 01:16:57;;;;;;;;;;;9.50;99.90;;;;;;5073790;28;19908;-72
2023/04/10 01:19:41;;;;;;;;;;;9.50;99.90;;;;;;5073467;28;19913;-73
2023/04/10 01:22:10;;;;;;;;;;;9.50;99.90;;;;;;5072754;28;19909;-73
2023/04/10 01:24:47;;;;;;;;;;;9.50;99.90;;;;;;5073785;28;20634;-72
2023/04/10 01:27:16;;;;;;;;;;;9.50;99.90;;;;;;5072029;28;19908;-73
2023/04/10 01:29:46;;;;;;;;;;;9.40;99.90;;;;;;5073587;28;19913;-74
2023/04/10 01:32:12;;;;;;;;;;;9.40;99.90;;;;;;5072563;28;19915;-72
2023/04/10 01:34:40;;;;;;;;;;;9.40;99.90;;;;;;5073699;28;19908;-72
2023/04/10 01:37:19;;;;;;;;;;;9.30;99.90;;;;;;5073913;28;19915;-73
2023/04/10 01:39:47;;;;;;;;;;;9.20;99.90;;;;;;5073750;28;19915;-72
2023/04/10 01:42:13;;;;;;;;;;;9.20;99.90;;;;;;5071500;28;19913;-73
2023/04/10 01:44:40;;;;;;;;;;;9.20;99.90;;;;;;5073018;28;19940;-73
2023/04/10 01:47:07;;;;;;;;;;;9.20;99.90;;;;;;5073395;28;19908;-73
2023/04/10 01:49:33;;;;;;;;;;;9.20;99.90;;;;;;5072342;28;19923;-73
2023/04/10 01:51:59;;;;;;;;;;;9.20;99.90;;;;;;5073709;28;20454;-72
2023/04/10 01:54:26;;;;;;;;;;;9.10;99.90;;;;;;5072115;28;19951;-75
2023/04/10 01:56:52;;;;;;;;;;;9.10;99.90;;;;;;5073989;28;19912;-72
2023/04/10 01:59:18;;;;;;;;;;;9.10;99.90;;;;;;5071473;28;19954;-73
2023/04/10 02:01:43;;;;;;;;;;;9.00;99.90;;;;;;5072070;28;19959;-74
2023/04/10 02:04:12;;;;;;;;;;;9.00;99.90;;;;;;5073547;28;19947;-72
2023/04/10 02:06:48;;;;;;;;;;;9.00;99.90;;;;;;5073162;28;19909;-73
2023/04/10 02:09:16;;;;;;;;;;;9.00;99.90;;;;;;5073398;28;19917;-73
2023/04/10 02:11:51;;;;;;;;;;;9.00;99.90;;;;;;5074733;28;19919;-74
2023/04/10 02:14:19;;;;;;;;;;;9.00;99.90;;;;;;5073356;28;19908;-72
2023/04/10 02:16:45;;;;;;;;;;;8.90;99.90;;;;;;5074353;28;19916;-72
2023/04/10 02:19:12;;;;;;;;;;;8.90;99.90;;;;;;5074626;28;19908;-72
2023/04/10 02:21:38;;;;;;;;;;;8.90;99.90;;;;;;5076658;28;19962;-71
2023/04/10 02:24:05;;;;;;;;;;;8.80;99.90;;;;;;5079633;28;19916;-73
2023/04/10 02:26:42;;;;;;;;;;;8.80;99.90;;;;;;5078763;28;19944;-72
2023/04/10 02:29:08;;;;;;;;;;;8.90;99.90;;;;;;5079761;28;19913;-73
2023/04/10 02:31:33;;;;;;;;;;;8.80;99.90;;;;;;5079471;28;20018;-72
2023/04/10 02:33:59;;;;;;;;;;;8.80;99.90;;;;;;5076744;28;19931;-72
2023/04/10 02:36:25;;;;;;;;;;;8.80;99.90;;;;;;5076532;28;19915;-72
2023/04/10 02:38:50;;;;;;;;;;;8.70;99.90;;;;;;5075498;28;19908;-73
2023/04/10 02:41:16;;;;;;;;;;;8.70;99.90;;;;;;5075920;28;19908;-74
2023/04/10 02:43:42;;;;;;;;;;;8.60;99.90;;;;;;5075731;28;19912;-71
2023/04/10 02:46:07;;;;;;;;;;;8.60;99.90;;;;;;5076564;28;19998;-73
2023/04/10 02:48:33;;;;;;;;;;;8.60;99.90;;;;;;5075265;28;19935;-73
2023/04/10 02:50:59;;;;;;;;;;;8.70;99.90;;;;;;5075263;28;19912;-73
2023/04/10 02:53:25;;;;;;;;;;;8.70;99.90;;;;;;5076228;28;19915;-73
2023/04/10 02:55:51;;;;;;;;;;;8.70;99.90;;;;;;5074857;28;19939;-72
2023/04/10 02:58:17;;;;;;;;;;;8.60;99.90;;;;;;5076406;28;19962;-74
2023/04/10 03:00:52;;;;;;;;;;;8.60;99.90;;;;;;5075314;28;19931;-72
2023/04/10 03:03:18;;;;;;;;;;;8.70;99.90;;;;;;5074800;28;19950;-73
2023/04/10 03:05:45;;;;;;;;;;;8.70;99.90;;;;;;5075966;28;19987;-73
2023/04/10 03:08:12;;;;;;;;;;;8.70;99.90;;;;;;5076386;28;19927;-74
2023/04/10 03:10:37;;;;;;;;;;;8.70;99.90;;;;;;5076754;28;19916;-73
2023/04/10 03:13:03;;;;;;;;;;;8.70;99.90;;;;;;5074980;28;19909;-71
2023/04/10 03:15:29;;;;;;;;;;;8.70;99.90;;;;;;5074834;28;19915;-71
2023/04/10 03:17:55;;;;;;;;;;;8.70;99.90;;;;;;5076030;28;19948;-72
2023/04/10 03:20:21;;;;;;;;;;;8.70;99.90;;;;;;5076674;28;20273;-72
2023/04/10 03:22:46;;;;;;;;;;;8.70;99.90;;;;;;5074200;28;19948;-72
2023/04/10 03:25:12;;;;;;;;;;;8.70;99.90;;;;;;5074281;28;20323;-72
2023/04/10 03:27:38;;;;;;;;;;;8.70;99.90;;;;;;5076027;28;19934;-72
2023/04/10 03:30:03;;;;;;;;;;;8.70;99.90;;;;;;5074516;28;19966;-72
2023/04/10 03:32:30;;;;;;;;;;;8.70;99.90;;;;;;5076043;28;19931;-72
2023/04/10 03:34:56;;;;;;;;;;;8.70;99.90;;;;;;5075376;28;20354;-71
2023/04/10 03:37:22;;;;;;;;;;;8.70;99.90;;;;;;5075728;28;20399;-72
2023/04/10 03:39:47;;;;;;;;;;;8.70;99.90;;;;;;5075525;28;19955;-72
2023/04/10 03:42:13;;;;;;;;;;;8.70;99.90;;;;;;5075687;28;19958;-72
2023/04/10 03:44:39;;;;;;;;;;;8.70;99.90;;;;;;5075086;28;19998;-73
2023/04/10 03:47:04;;;;;;;;;;;8.80;99.90;;;;;;5074362;28;19908;-72
2023/04/10 03:49:30;;;;;;;;;;;8.80;99.90;;;;;;5075111;28;19916;-72
2023/04/10 03:51:55;;;;;;;;;;;8.70;99.90;;;;;;5075042;28;19909;-72
2023/04/10 03:54:21;;;;;;;;;;;8.70;99.90;;;;;;5074542;28;19974;-72
2023/04/10 03:56:47;;;;;;;;;;;8.70;99.90;;;;;;5072421;28;19954;-74
2023/04/10 03:59:12;;;;;;;;;;;8.80;99.90;;;;;;5074874;28;19908;-72
2023/04/10 04:01:38;;;;;;;;;;;8.80;99.90;;;;;;5074037;28;19955;-72
2023/04/10 04:04:04;;;;;;;;;;;8.70;99.90;;;;;;5073801;28;19908;-72
2023/04/10 04:06:30;;;;;;;;;;;8.70;99.90;;;;;;5073419;28;19909;-73
2023/04/10 04:08:56;;;;;;;;;;;8.70;99.90;;;;;;5075405;28;20007;-72
2023/04/10 04:11:22;;;;;;;;;;;8.80;99.90;;;;;;5075347;28;19942;-73
2023/04/10 04:13:48;;;;;;;;;;;8.80;99.90;;;;;;5073508;28;20003;-73
2023/04/10 04:16:13;;;;;;;;;;;8.70;99.90;;;;;;5074537;28;19981;-73
2023/04/10 04:18:39;;;;;;;;;;;8.70;99.90;;;;;;5075215;28;19919;-72
2023/04/10 04:21:07;;;;;;;;;;;8.70;99.90;;;;;;5073406;28;19954;-72
2023/04/10 04:23:33;;;;;;;;;;;8.70;99.90;;;;;;5072598;28;20382;-72
2023/04/10 04:25:58;;;;;;;;;;;8.80;99.90;;;;;;5074464;28;19908;-73
2023/04/10 04:28:24;;;;;;;;;;;8.70;99.90;;;;;;5074139;28;20361;-72
2023/04/10 04:30:50;;;;;;;;;;;8.80;99.90;;;;;;5073579;28;20294;-72
2023/04/10 04:33:15;;;;;;;;;;;8.80;99.90;;;;;;5073594;28;19908;-72
2023/04/10 04:35:41;;;;;;;;;;;8.80;99.90;;;;;;5074390;28;19961;-72
2023/04/10 04:38:07;;;;;;;;;;;8.80;99.90;;;;;;5074464;28;19915;-72
2023/04/10 04:40:32;;;;;;;;;;;8.80;99.90;;;;;;5073178;28;19908;-72
2023/04/10 04:42:58;;;;;;;;;;;8.90;99.90;;;;;;5074394;28;19995;-72
2023/04/10 04:45:23;;;;;;;;;;;8.90;99.90;;;;;;5073760;28;19916;-72
2023/04/10 04:47:49;;;;;;;;;;;8.90;99.90;;;;;;5072550;28;19963;-73
2023/04/10 04:50:15;;;;;;;;;;;8.90;99.90;;;;;;5073104;28;19948;-73
2023/04/10 04:52:42;;;;;;;;;;;9.00;99.90;;;;;;5073125;28;19913;-72
2023/04/10 04:55:08;;;;;;;;;;;9.00;99.90;;;;;;5073961;28;19942;-72
2023/04/10 04:57:34;;;;;;;;;;;9.00;99.90;;;;;;5072756;28;19909;-72
2023/04/10 05:00:00;;;;;;;;;;;9.00;99.90;;;;;;5072693;28;19999;-71
2023/04/10 05:02:25;;;;;;;;;;;9.00;99.90;;;;;;5073967;28;19916;-72
2023/04/10 05:04:51;;;;;;;;;;;9.00;99.90;;;;;;5072305;28;19916;-71
2023/04/10 05:07:17;;;;;;;;;;;9.00;99.90;;;;;;5073921;28;20457;-71
2023/04/10 05:09:42;;;;;;;;;;;9.10;99.90;;;;;;5073982;28;19912;-72
2023/04/10 05:12:08;;;;;;;;;;;9.10;99.90;;;;;;5072696;28;19908;-74
2023/04/10 05:14:33;;;;;;;;;;;9.10;99.90;;;;;;5072784;28;19915;-72
2023/04/10 05:16:59;;;;;;;;;;;9.10;99.90;;;;;;5072840;28;20361;-73
2023/04/10 05:19:25;;;;;;;;;;;9.20;99.90;;;;;;5073762;28;19919;-73
2023/04/10 05:21:50;;;;;;;;;;;9.10;99.90;;;;;;5073732;28;19915;-73
2023/04/10 05:24:16;;;;;;;;;;;9.20;99.90;;;;;;5073735;28;19951;-72
2023/04/10 05:26:41;;;;;;;;;;;9.20;99.90;;;;;;5071960;28;20347;-72
2023/04/10 05:29:07;;;;;;;;;;;9.20;99.90;;;;;;5072852;28;19920;-71
2023/04/10 05:31:33;;;;;;;;;;;9.30;99.90;;;;;;5072411;28;20003;-72
2023/04/10 05:33:58;;;;;;;;;;;9.30;99.90;;;;;;5073510;28;20003;-72
2023/04/10 05:36:24;;;;;;;;;;;9.30;99.90;;;;;;5073120;28;19916;-72
2023/04/10 05:38:50;;;;;;;;;;;9.40;99.90;;;;;;5077489;28;19909;-71
2023/04/10 05:41:15;;;;;;;;;;;9.40;99.90;;;;;;5077802;28;19947;-72
2023/04/10 05:43:41;;;;;;;;;;;9.40;99.90;;;;;;5077679;28;19951;-74
2023/04/10 05:46:07;;;;;;;;;;;9.50;99.90;;;;;;5078001;28;19915;-72
2023/04/10 05:48:32;;;;;;;;;;;9.60;99.90;;;;;;5079457;28;20437;-72
2023/04/10 05:50:58;;;;;;;;;;;9.60;99.90;;;;;;5078418;28;19915;-72
2023/04/10 05:53:29;;;;;;;;;;;9.60;99.90;;;;;;5076737;28;19908;-72
2023/04/10 05:55:56;;;;;;;;;;;9.70;99.90;;;;;;5077295;28;19908;-72
2023/04/10 05:58:21;;;;;;;;;;;9.70;99.90;;;;;;5077820;28;20313;-72
2023/04/10 06:00:47;;;;;;;;;;;9.80;99.90;;;;;;5078180;28;19909;-73
2023/04/10 06:03:12;;;;;;;;;;;9.80;99.90;;;;;;5079125;28;19909;-72
2023/04/10 06:05:40;;;;;;;;;;;9.90;99.90;;;;;;5076975;28;19999;-74
2023/04/10 06:08:06;;;;;;;;;;;9.90;99.90;;;;;;5077381;28;19981;-72
2023/04/10 06:10:32;;;;;;;;;;;9.90;99.90;;;;;;5078449;28;20178;-73
2023/04/10 06:12:57;;;;;;;;;;;10.00;99.90;;;;;;5076252;28;19948;-72
2023/04/10 06:15:23;;;;;;;;;;;10.10;99.90;;;;;;5074858;28;19915;-73
2023/04/10 06:17:48;;;;;;;;;;;10.20;99.90;;;;;;5075830;28;19916;-73
2023/04/10 06:20:14;;;;;;;;;;;10.20;99.90;;;;;;5075512;28;20344;-71
2023/04/10 06:22:40;;;;;;;;;;;10.30;99.90;;;;;;5075451;28;19912;-72
2023/04/10 06:25:06;;;;;;;;;;;10.40;99.90;;;;;;5076285;28;19908;-72
2023/04/10 06:27:32;;;;;;;;;;;10.40;99.90;;;;;;5075476;28;19991;-72
2023/04/10 06:29:58;;;;;;;;;;;10.50;99.90;;;;;;5076651;28;19912;-72
2023/04/10 06:32:24;;;;;;;;;;;10.50;99.90;;;;;;5075052;28;19916;-72
2023/04/10 06:34:50;;;;;;;;;;;10.50;99.90;;;;;;5074763;28;19951;-72
2023/04/10 06:37:15;;;;;;;;;;;10.60;99.90;;;;;;5075508;28;19908;-74
2023/04/10 06:39:41;;;;;;;;;;;10.70;99.90;;;;;;5076371;28;20050;-71
2023/04/10 06:42:06;;;;;;;;;;;10.80;99.90;;;;;;5074979;28;19999;-72
2023/04/10 06:44:32;;;;;;;;;;;10.80;99.90;;;;;;5077146;28;19975;-72
2023/04/10 06:46:58;;;;;;;;;;;10.80;99.90;;;;;;5075740;28;20388;-73
2023/04/10 06:49:23;;;;;;;;;;;10.90;99.90;;;;;;5076810;28;20287;-72
2023/04/10 06:51:49;;;;;;;;;;;10.90;99.90;;;;;;5074806;28;19920;-72
2023/04/10 06:54:15;;;;;;;;;;;11.00;99.90;;;;;;5076465;28;20366;-71
2023/04/10 06:56:41;;;;;;;;;;;11.00;99.90;;;;;;5074830;28;19922;-73
2023/04/10 06:59:06;;;;;;;;;;;11.10;99.90;;;;;;5075267;28;19934;-73
2023/04/10 07:01:32;;;;;;;;;;;11.20;99.90;;;;;;5075606;28;19948;-75
2023/04/10 07:03:58;;;;;;;;;;;11.20;99.90;;;;;;5076695;28;19908;-72
2023/04/10 07:06:23;;;;;;;;;;;11.30;99.90;;;;;;5074762;28;19908;-73
2023/04/10 07:08:49;;;;;;;;;;;11.40;99.90;;;;;;5074930;28;19913;-73
2023/04/10 07:11:15;;;;;;;;;;;11.40;99.90;;;;;;5076410;28;19926;-74
2023/04/10 07:13:40;;;;;;;;;;;11.50;99.90;;;;;;5076219;28;19944;-75
2023/04/10 07:16:09;;;;;;;;;;;11.50;99.90;;;;;;5074108;28;19952;-72
2023/04/10 07:18:37;;;;;;;;;;;11.60;99.90;;;;;;5075085;28;20358;-73
2023/04/10 07:21:08;;;;;;;;;;;11.60;99.90;;;;;;5074789;28;19912;-73
2023/04/10 07:23:34;;;;;;;;;;;11.60;99.90;;;;;;5075306;28;19916;-72
2023/04/10 07:26:00;;;;;;;;;;;11.60;99.90;;;;;;5075359;28;19909;-72
2023/04/10 07:28:26;;;;;;;;;;;11.70;99.90;;;;;;5074367;28;19958;-71
2023/04/10 07:30:51;;;;;;;;;;;11.60;99.90;;;;;;5075733;28;19908;-74
2023/04/10 07:33:17;;;;;;;;;;;11.80;99.90;;;;;;5074049;28;19959;-73
2023/04/10 07:35:42;;;;;;;;;;;11.80;99.90;;;;;;5075245;28;19908;-73
2023/04/10 07:38:10;;;;;;;;;;;11.90;99.90;;;;;;5074286;28;19974;-72
2023/04/10 07:40:36;;;;;;;;;;;12.00;99.90;;;;;;5075146;28;19983;-74
2023/04/10 07:43:01;;;;;;;;;;;12.00;99.90;;;;;;5073906;28;19947;-73
2023/04/10 07:45:27;;;;;;;;;;;12.00;99.90;;;;;;5074903;28;19909;-72
2023/04/10 07:47:53;;;;;;;;;;;12.10;99.90;;;;;;5074185;28;19908;-72
2023/04/10 07:50:18;;;;;;;;;;;12.10;99.90;;;;;;5075450;28;19908;-73
2023/04/10 07:52:44;;;;;;;;;;;12.10;99.90;;;;;;5074792;28;19951;-74
2023/04/10 07:55:10;;;;;;;;;;;12.10;99.90;;;;;;5073368;28;19919;-72
2023/04/10 07:57:35;;;;;;;;;;;12.20;99.90;;;;;;5074014;28;20318;-73
2023/04/10 08:00:01;;;;;;;;;;;12.30;99.90;;;;;;5074264;28;19987;-73
2023/04/10 08:02:27;;;;;;;;;;;12.30;99.90;;;;;;5074073;28;20011;-73
2023/04/10 08:04:52;;;;;;;;;;;12.40;99.90;;;;;;5074540;28;19909;-74
2023/04/10 08:07:20;;;;;;;;;;;12.40;99.90;;;;;;5075077;28;19999;-75
2023/04/10 08:09:45;;;;;;;;;;;12.50;99.90;;;;;;5074877;28;20355;-73
2023/04/10 08:12:11;;;;;;;;;;;12.60;99.90;;;;;;5074874;28;19915;-73
2023/04/10 08:14:37;;;;;;;;;;;12.70;99.90;;;;;;5073121;28;19909;-73
2023/04/10 08:17:02;;;;;;;;;;;12.70;99.90;;;;;;5073450;28;19908;-73
2023/04/10 08:19:28;;;;;;;;;;;12.80;99.90;;;;;;5074396;28;19955;-72
2023/04/10 08:21:54;;;;;;;;;;;12.90;99.90;;;;;;5072817;28;20366;-73
2023/04/10 08:24:21;;;;;;;;;;;12.90;99.90;;;;;;5073906;28;19969;-74
2023/04/10 08:26:47;;;;;;;;;;;12.90;99.90;;;;;;5072551;28;19935;-72
2023/04/10 08:29:13;;;;;;;;;;;12.80;99.90;;;;;;5073339;28;19986;-73
2023/04/10 08:31:38;;;;;;;;;;;12.70;99.90;;;;;;5072458;28;19999;-73
2023/04/10 08:34:04;;;;;;;;;;;12.80;99.90;;;;;;5072000;28;19908;-74
2023/04/10 08:36:30;;;;;;;;;;;13.00;99.90;;;;;;5071842;28;19908;-72
2023/04/10 08:38:55;;;;;;;;;;;13.00;99.90;;;;;;5073430;28;19963;-72
2023/04/10 08:41:21;;;;;;;;;;;13.00;99.90;;;;;;5073714;28;20159;-73
2023/04/10 08:43:48;;;;;;;;;;;13.10;99.90;;;;;;5073932;28;19909;-72
2023/04/10 08:46:14;;;;;;;;;;;13.20;99.90;;;;;;5072165;28;19909;-73
2023/04/10 08:48:43;;;;;;;;;;;13.30;99.90;;;;;;5072647;28;20003;-74
2023/04/10 08:51:12;;;;;;;;;;;13.20;99.90;;;;;;5073926;28;19909;-72
2023/04/10 08:53:39;;;;;;;;;;;13.30;99.90;;;;;;5072536;28;19908;-73
2023/04/10 08:56:06;;;;;;;;;;;13.30;99.90;;;;;;5073638;28;19955;-74
2023/04/10 08:58:31;;;;;;;;;;;13.40;99.90;;;;;;5074306;28;19935;-73
2023/04/10 09:00:57;;;;;;;;;;;13.50;99.90;;;;;;5073685;28;19912;-73
2023/04/10 09:03:24;;;;;;;;;;;13.40;99.90;;;;;;5074018;28;20280;-73
2023/04/10 09:05:49;;;;;;;;;;;13.40;99.90;;;;;;5072177;28;19936;-73
2023/04/10 09:08:15;;;;;;;;;;;13.40;99.90;;;;;;5072777;28;19920;-74
2023/04/10 09:10:41;;;;;;;;;;;13.40;99.90;;;;;;5073247;28;19908;-73
2023/04/10 09:13:06;;;;;;;;;;;13.50;99.90;;;;;;5072561;28;19909;-73
2023/04/10 09:15:51;;;;;;;;;;;13.60;99.90;;;;;;5074026;28;19913;-73
2023/04/10 09:18:16;;;;;;;;;;;13.70;99.90;;;;;;5075482;28;19909;-74
2023/04/10 09:20:42;;;;;;;;;;;13.80;99.90;;;;;;5076323;28;19922;-72
2023/04/10 09:23:23;;;;;;;;;;;13.90;99.90;;;;;;5075042;28;19946;-74
2023/04/10 09:25:48;;;;;;;;;;;14.10;99.90;;;;;;5072240;28;19909;-74
2023/04/10 09:28:14;;;;;;;;;;;14.30;99.90;;;;;;5072474;28;19915;-74
2023/04/10 09:30:41;;;;;;;;;;;14.50;99.90;;;;;;5073689;28;19915;-74
2023/04/10 09:33:23;;;;;;;;;;;14.50;99.90;;;;;;5073274;28;19908;-74
2023/04/10 09:35:49;;;;;;;;;;;14.50;99.90;;;;;;5073249;28;19932;-74
2023/04/10 09:38:19;;;;;;;;;;;14.40;99.90;;;;;;5073113;28;20018;-73
2023/04/10 09:40:46;;;;;;;;;;;14.40;99.90;;;;;;5074010;28;19908;-73
2023/04/10 09:43:25;;;;;;;;;;;14.30;99.90;;;;;;5073148;28;19913;-72
2023/04/10 09:45:51;;;;;;;;;;;14.50;99.90;;;;;;5073251;28;19954;-73
2023/04/10 09:48:18;;;;;;;;;;;14.50;99.90;;;;;;5073692;28;19916;-74
2023/04/10 09:50:43;;;;;;;;;;;14.60;99.90;;;;;;5076064;28;19916;-74
2023/04/10 09:53:10;;;;;;;;;;;14.60;99.90;;;;;;5076732;28;20357;-74
2023/04/10 09:55:36;;;;;;;;;;;14.60;99.90;;;;;;5076837;28;19916;-73
2023/04/10 09:58:02;;;;;;;;;;;14.80;99.90;;;;;;5077468;28;19913;-74
2023/04/10 10:00:28;;;;;;;;;;;14.80;99.90;;;;;;5078854;28;19909;-74
2023/04/10 10:02:55;;;;;;;;;;;14.90;99.90;;;;;;5075856;28;19915;-74
2023/04/10 10:05:22;;;;;;;;;;;14.80;99.90;;;;;;5071619;28;19954;-74
2023/04/10 10:07:48;;;;;;;;;;;14.80;99.90;;;;;;5073059;28;19917;-75
2023/04/10 10:10:14;;;;;;;;;;;14.80;99.90;;;;;;5071850;28;19912;-73
2023/04/10 10:12:43;;;;;;;;;;;14.80;99.90;;;;;;5075857;28;19966;-74
2023/04/10 10:15:12;;;;;;;;;;;14.80;99.90;;;;;;5077275;28;19908;-73
2023/04/10 10:17:42;;;;;;;;;;;14.70;99.90;;;;;;5079887;28;19991;-74
2023/04/10 10:20:08;;;;;;;;;;;14.80;99.90;;;;;;5079830;28;19912;-75
2023/04/10 10:22:35;;;;;;;;;;;14.90;99.90;;;;;;5080633;28;19915;-75
2023/04/10 10:25:01;;;;;;;;;;;15.00;99.90;;;;;;5082865;28;19973;-74
2023/04/10 10:27:28;;;;;;;;;;;15.20;99.90;;;;;;5082186;28;19908;-74
2023/04/10 10:29:54;;;;;;;;;;;15.30;99.90;;;;;;5076896;28;19977;-73
2023/04/10 10:32:20;;;;;;;;;;;15.30;99.90;;;;;;5076717;28;19952;-73
2023/04/10 10:34:46;;;;;;;;;;;15.30;99.90;;;;;;5075519;28;19952;-73
2023/04/10 10:37:12;;;;;;;;;;;15.30;99.90;;;;;;5075832;28;19912;-73
2023/04/10 10:39:46;;;;;;;;;;;15.40;99.90;;;;;;5077398;28;19909;-73
2023/04/10 10:42:12;;;;;;;;;;;15.50;99.90;;;;;;5075486;28;20310;-73
2023/04/10 10:44:44;;;;;;;;;;;15.60;99.90;;;;;;5076462;28;19908;-73
2023/04/10 10:47:26;;;;;;;;;;;15.60;99.90;;;;;;5074416;28;19958;-72
2023/04/10 10:49:54;;;;;;;;;;;15.60;99.90;;;;;;5076750;28;19919;-73
2023/04/10 10:52:35;;;;;;;;;;;15.50;99.90;;;;;;5076597;28;19920;-74
2023/04/10 10:55:21;;;;;;;;;;;15.50;99.90;;;;;;5076175;28;19912;-74
2023/04/10 10:57:48;;;;;;;;;;;15.60;99.90;;;;;;5068620;28;19953;-74
2023/04/10 11:00:14;;;;;;;;;;;15.70;99.90;;;;;;5076349;28;19909;-74
2023/04/10 11:02:40;;;;;;;;;;;15.70;99.90;;;;;;5075861;28;20004;-73
2023/04/10 11:05:06;;;;;;;;;;;15.80;99.90;;;;;;5075773;28;19948;-74
2023/04/10 11:07:50;;;;;;;;;;;15.80;99.90;;;;;;5075454;28;19909;-75
2023/04/10 11:10:16;;;;;;;;;;;15.90;99.90;;;;;;5075951;28;19913;-75
2023/04/10 11:13:00;;;;;;;;;;;16.20;99.90;;;;;;5074849;28;19913;-74
2023/04/10 11:15:26;;;;;;;;;;;16.10;99.90;;;;;;5073888;28;19909;-74
2023/04/10 11:17:52;;;;;;;;;;;16.10;99.90;;;;;;5076196;28;20301;-74
2023/04/10 11:20:25;;;;;;;;;;;16.10;99.90;;;;;;5074695;28;20290;-73
2023/04/10 11:23:08;;;;;;;;;;;16.00;99.90;;;;;;5073956;28;19908;-73
2023/04/10 11:25:46;;;;;;;;;;;16.00;99.90;;;;;;5075009;28;19913;-74
2023/04/10 11:28:30;;;;;;;;;;;16.00;99.90;;;;;;5075674;28;20381;-73
2023/04/10 11:30:56;;;;;;;;;;;16.10;99.90;;;;;;5075592;28;19909;-74
2023/04/10 11:33:21;;;;;;;;;;;16.20;99.90;;;;;;5074198;28;20022;-73
2023/04/10 11:35:47;;;;;;;;;;;16.30;99.90;;;;;;5073656;28;20389;-74
2023/04/10 11:38:14;;;;;;;;;;;16.30;99.90;;;;;;5075432;28;20294;-76
2023/04/10 11:41:12;;;;;;;;;;;16.40;99.90;;;;;;5074963;28;20410;-74
2023/04/10 11:43:38;;;;;;;;;;;16.60;99.90;;;;;;5051920;28;19999;-73
2023/04/10 11:46:04;;;;;;;;;;;16.70;99.90;;;;;;5073520;28;20330;-73
2023/04/10 11:48:30;;;;;;;;;;;16.80;99.90;;;;;;5073428;28;19920;-74
2023/04/10 11:50:56;;;;;;;;;;;16.80;99.90;;;;;;5073653;28;19909;-73
2023/04/10 11:53:22;;;;;;;;;;;16.80;99.90;;;;;;5075431;28;19919;-73
2023/04/10 11:55:48;;;;;;;;;;;16.80;99.90;;;;;;5074673;28;19909;-74
2023/04/10 11:58:22;;;;;;;;;;;17.00;99.90;;;;;;5074075;28;19909;-74
2023/04/10 12:01:01;;;;;;;;;;;16.90;99.90;;;;;;5073350;28;19908;-73
2023/04/10 12:03:43;;;;;;;;;;;16.90;99.90;;;;;;5074808;28;19910;-74
2023/04/10 12:06:13;;;;;;;;;;;17.00;99.90;;;;;;5074674;28;19909;-74
2023/04/10 12:08:40;;;;;;;;;;;17.00;99.90;;;;;;5074484;28;19912;-73
2023/04/10 12:11:06;;;;;;;;;;;16.80;99.90;;;;;;5072964;28;20444;-74
2023/04/10 12:13:32;;;;;;;;;;;16.80;99.90;;;;;;5074843;28;19923;-76
2023/04/10 12:16:02;;;;;;;;;;;16.80;99.90;;;;;;5073283;28;19913;-74
2023/04/10 12:18:29;;;;;;;;;;;16.90;99.90;;;;;;5074837;28;19980;-76
2023/04/10 12:20:56;;;;;;;;;;;17.00;99.90;;;;;;5074908;28;19908;-74
2023/04/10 12:23:22;;;;;;;;;;;17.00;99.90;;;;;;5074031;28;20007;-74
2023/04/10 12:25:48;;;;;;;;;;;17.10;99.90;;;;;;5073110;28;19909;-73
2023/04/10 12:28:18;;;;;;;;;;;17.10;99.90;;;;;;5073408;28;19909;-75
2023/04/10 12:30:47;;;;;;;;;;;17.00;99.90;;;;;;5074464;28;20397;-75
2023/04/10 12:33:22;;;;;;;;;;;17.20;99.90;;;;;;5073437;28;20234;-74
2023/04/10 12:35:47;;;;;;;;;;;17.30;99.90;;;;;;5072748;28;19908;-74
2023/04/10 12:38:13;;;;;;;;;;;17.30;99.90;;;;;;5074659;28;19995;-76
2023/04/10 12:40:56;;;;;;;;;;;17.10;99.90;;;;;;5073721;28;19915;-73
2023/04/10 12:43:48;;;;;;;;;;;17.10;99.90;;;;;;5071766;28;20333;-74
2023/04/10 12:46:27;;;;;;;;;;;17.10;99.90;;;;;;5069074;28;19999;-74
2023/04/10 12:48:53;;;;;;;;;;;17.20;99.90;;;;;;5075077;28;20431;-74
2023/04/10 12:51:19;;;;;;;;;;;17.20;99.90;;;;;;5077016;28;19993;-75
2023/04/10 12:53:45;;;;;;;;;;;17.20;99.90;;;;;;5075788;28;19944;-73
2023/04/10 12:56:12;;;;;;;;;;;17.30;99.90;;;;;;5074726;28;20271;-74
2023/04/10 12:58:38;;;;;;;;;;;17.30;99.90;;;;;;5070584;28;19908;-74
2023/04/10 13:01:05;;;;;;;;;;;17.30;99.90;;;;;;5071969;28;19915;-74
2023/04/10 13:03:35;;;;;;;;;;;17.40;99.90;;;;;;5071960;28;19909;-74
2023/04/10 13:06:01;;;;;;;;;;;17.50;99.90;;;;;;5070072;28;19995;-75
2023/04/10 13:08:27;;;;;;;;;;;17.50;99.90;;;;;;5070426;28;20019;-75
2023/04/10 13:10:53;;;;;;;;;;;17.60;99.90;;;;;;5072973;28;19990;-75
2023/04/10 13:13:19;;;;;;;;;;;17.50;99.90;;;;;;5073465;28;19908;-74
2023/04/10 13:15:45;;;;;;;;;;;17.50;99.90;;;;;;5072323;28;19915;-74
2023/04/10 13:18:11;;;;;;;;;;;17.50;99.90;;;;;;5073654;28;20007;-74
2023/04/10 13:20:37;;;;;;;;;;;17.50;99.90;;;;;;5072030;28;19916;-73
2023/04/10 13:23:03;;;;;;;;;;;17.40;99.90;;;;;;5071931;28;20003;-74
2023/04/10 13:25:31;;;;;;;;;;;17.40;99.90;;;;;;5071788;28;19952;-75
2023/04/10 13:27:57;;;;;;;;;;;17.40;99.90;;;;;;5072722;28;20378;-74
2023/04/10 13:30:22;;;;;;;;;;;17.30;99.90;;;;;;5072604;28;19923;-73
2023/04/10 13:32:48;;;;;;;;;;;17.30;99.90;;;;;;5072464;28;19909;-73
2023/04/10 13:35:14;;;;;;;;;;;17.30;99.90;;;;;;5072182;28;19908;-74
2023/04/10 13:37:39;;;;;;;;;;;17.30;99.90;;;;;;5073475;28;20066;-75
2023/04/10 13:40:05;;;;;;;;;;;17.30;99.90;;;;;;5072237;28;19912;-73
2023/04/10 13:42:31;;;;;;;;;;;17.40;99.90;;;;;;5073734;28;19920;-74
2023/04/10 13:44:57;;;;;;;;;;;17.60;99.90;;;;;;5073574;28;19909;-74
2023/04/10 13:47:23;;;;;;;;;;;17.50;99.90;;;;;;5073313;28;19908;-74
2023/04/10 13:49:48;;;;;;;;;;;17.60;99.90;;;;;;5073216;28;19952;-75
2023/04/10 13:52:14;;;;;;;;;;;17.60;99.90;;;;;;5075395;28;19962;-76
2023/04/10 13:54:40;;;;;;;;;;;17.70;99.90;;;;;;5072336;28;19909;-73
2023/04/10 13:57:05;;;;;;;;;;;17.70;99.90;;;;;;5074570;28;19909;-74
2023/04/10 13:59:31;;;;;;;;;;;17.70;99.90;;;;;;5077725;28;20374;-74
2023/04/10 14:01:56;;;;;;;;;;;17.80;99.90;;;;;;5076282;28;19915;-75
2023/04/10 14:04:22;;;;;;;;;;;17.80;99.90;;;;;;5077981;28;20406;-74
2023/04/10 14:06:49;;;;;;;;;;;17.90;99.90;;;;;;5078833;28;19908;-75
2023/04/10 14:09:14;;;;;;;;;;;18.00;99.90;;;;;;5079861;28;19912;-75
2023/04/10 14:11:40;;;;;;;;;;;18.10;99.90;;;;;;5078109;28;19916;-75
2023/04/10 14:14:06;;;;;;;;;;;18.10;99.90;;;;;;5076244;28;19915;-74
2023/04/10 14:16:31;;;;;;;;;;;17.90;99.90;;;;;;5075562;28;19912;-75
2023/04/10 14:18:57;;;;;;;;;;;17.80;99.90;;;;;;5077197;28;19920;-75
2023/04/10 14:21:23;;;;;;;;;;;17.80;99.90;;;;;;5075425;28;19955;-73